sensor_id;sensor_type;location;lat;lon;timestamp;pressure;altitude;pressure_sealevel;temperature;humidity
46942;BME280;32676;52.630;4.896;2023-02-28T00:00:06;100904.69;;;3.62;82.77
46942;BME280;32676;52.630;4.896;2023-02-28T00:02:35;100913.38;;;3.61;82.87
46942;BME280;32676;52.630;4.896;2023-02-28T00:05:02;100909.88;;;3.62;83.06
46942;BME280;32676;52.630;4.896;2023-02-28T00:07:29;100922.03;;;3.64;83.09
46942;BME280;32676;52.630;4.896;2023-02-28T00:09:56;100922.03;;;3.63;83.32
46942;BME280;32676;52.630;4.896;2023-02-28T00:12:24;100922.91;;;3.60;83.34
46942;BME280;32676;52.630;4.896;2023-02-28T00:14:51;100942.78;;;3.69;83.11
46942;BME280;32676;52.630;4.896;2023-02-28T00:17:18;100932.41;;;3.64;83.54
46942;BME280;32676;52.630;4.896;2023-02-28T00:19:46;100941.06;;;3.67;83.49
46942;BME280;32676;52.630;4.896;2023-02-28T00:22:13;100953.19;;;3.72;83.80
46942;BME280;32676;52.630;4.896;2023-02-28T00:24:39;100959.22;;;3.73;83.79
46942;BME280;32676;52.630;4.896;2023-02-28T00:27:06;100957.53;;;3.73;84.10
46942;BME280;32676;52.630;4.896;2023-02-28T00:29:33;100966.19;;;3.75;84.09
46942;BME280;32676;52.630;4.896;2023-02-28T00:32:00;100971.38;;;3.74;84.01
46942;BME280;32676;52.630;4.896;2023-02-28T00:34:27;100967.03;;;3.74;84.00
46942;BME280;32676;52.630;4.896;2023-02-28T00:36:53;100965.31;;;3.73;84.26
46942;BME280;32676;52.630;4.896;2023-02-28T00:39:20;100960.13;;;3.70;84.34
46942;BME280;32676;52.630;4.896;2023-02-28T00:41:47;100963.56;;;3.69;84.49
46942;BME280;32676;52.630;4.896;2023-02-28T00:44:13;100974.81;;;3.73;84.35
46942;BME280;32676;52.630;4.896;2023-02-28T00:46:41;100974.84;;;3.76;84.47
46942;BME280;32676;52.630;4.896;2023-02-28T00:49:08;100984.38;;;3.78;84.44
46942;BME280;32676;52.630;4.896;2023-02-28T00:51:34;100987.81;;;3.74;84.62
46942;BME280;32676;52.630;4.896;2023-02-28T00:54:00;100994.78;;;3.78;84.65
46942;BME280;32676;52.630;4.896;2023-02-28T00:56:27;100984.38;;;3.75;84.48
46942;BME280;32676;52.630;4.896;2023-02-28T00:58:53;100985.22;;;3.76;84.45
46942;BME280;32676;52.630;4.896;2023-02-28T01:01:20;101003.44;;;3.80;84.38
46942;BME280;32676;52.630;4.896;2023-02-28T01:03:48;101003.44;;;3.77;84.50
46942;BME280;32676;52.630;4.896;2023-02-28T01:06:14;101029.41;;;3.87;84.59
46942;BME280;32676;52.630;4.896;2023-02-28T01:08:41;101035.47;;;3.87;84.30
46942;BME280;32676;52.630;4.896;2023-02-28T01:11:09;101051.91;;;3.94;84.47
46942;BME280;32676;52.630;4.896;2023-02-28T01:13:35;101064.91;;;3.95;84.48
46942;BME280;32676;52.630;4.896;2023-02-28T01:16:02;101085.72;;;3.98;84.62
46942;BME280;32676;52.630;4.896;2023-02-28T01:18:29;101081.38;;;3.99;84.64
46942;BME280;32676;52.630;4.896;2023-02-28T01:20:57;101092.66;;;4.02;84.50
46942;BME280;32676;52.630;4.896;2023-02-28T01:23:23;101103.91;;;4.03;84.60
46942;BME280;32676;52.630;4.896;2023-02-28T01:25:50;101104.75;;;4.03;84.51
46942;BME280;32676;52.630;4.896;2023-02-28T01:28:17;101109.09;;;4.04;84.47
46942;BME280;32676;52.630;4.896;2023-02-28T01:30:47;101114.31;;;4.06;84.54
46942;BME280;32676;52.630;4.896;2023-02-28T01:33:14;101129.88;;;4.09;84.56
46942;BME280;32676;52.630;4.896;2023-02-28T01:35:41;101132.53;;;4.08;84.31
46942;BME280;32676;52.630;4.896;2023-02-28T01:38:08;101134.25;;;4.12;84.39
46942;BME280;32676;52.630;4.896;2023-02-28T01:40:35;101143.75;;;4.13;84.28
46942;BME280;32676;52.630;4.896;2023-02-28T01:43:02;101151.56;;;4.13;84.52
46942;BME280;32676;52.630;4.896;2023-02-28T01:45:29;101134.25;;;4.04;84.27
46942;BME280;32676;52.630;4.896;2023-02-28T01:48:00;101154.16;;;4.14;84.51
46942;BME280;32676;52.630;4.896;2023-02-28T01:50:31;101150.69;;;4.12;84.39
46942;BME280;32676;52.630;4.896;2023-02-28T01:53:01;101142.03;;;4.10;84.36
46942;BME280;32676;52.630;4.896;2023-02-28T01:55:32;101148.09;;;4.12;84.13
46942;BME280;32676;52.630;4.896;2023-02-28T01:58:02;101145.50;;;4.12;84.13
46942;BME280;32676;52.630;4.896;2023-02-28T02:00:30;101152.44;;;4.10;84.36
46942;BME280;32676;52.630;4.896;2023-02-28T02:02:58;101159.38;;;4.14;84.19
46942;BME280;32676;52.630;4.896;2023-02-28T02:05:27;101156.78;;;4.11;84.26
46942;BME280;32676;52.630;4.896;2023-02-28T02:07:58;101161.97;;;4.14;84.19
46942;BME280;32676;52.630;4.896;2023-02-28T02:10:32;101168.91;;;4.14;84.04
46942;BME280;32676;52.630;4.896;2023-02-28T02:13:11;101173.22;;;4.16;84.33
46942;BME280;32676;52.630;4.896;2023-02-28T02:15:42;101168.91;;;4.17;84.41
46942;BME280;32676;52.630;4.896;2023-02-28T02:18:18;101176.72;;;4.18;84.34
46942;BME280;32676;52.630;4.896;2023-02-28T02:23:56;101188.00;;;4.19;84.28
46942;BME280;32676;52.630;4.896;2023-02-28T02:29:40;101181.91;;;4.15;84.29
46942;BME280;32676;52.630;4.896;2023-02-28T02:32:22;101188.00;;;4.19;84.32
46942;BME280;32676;52.630;4.896;2023-02-28T02:35:02;101177.59;;;4.11;84.00
46942;BME280;32676;52.630;4.896;2023-02-28T02:37:36;101206.16;;;4.22;84.08
46942;BME280;32676;52.630;4.896;2023-02-28T02:40:11;101207.91;;;4.21;84.08
46942;BME280;32676;52.630;4.896;2023-02-28T02:42:43;101211.38;;;4.23;83.85
46942;BME280;32676;52.630;4.896;2023-02-28T02:45:16;101216.56;;;4.23;83.89
46942;BME280;32676;52.630;4.896;2023-02-28T02:47:45;101211.38;;;4.23;83.88
46942;BME280;32676;52.630;4.896;2023-02-28T02:50:15;101207.06;;;4.22;83.95
46942;BME280;32676;52.630;4.896;2023-02-28T02:52:48;101212.25;;;4.22;83.55
46942;BME280;32676;52.630;4.896;2023-02-28T02:55:17;101210.50;;;4.21;83.84
46942;BME280;32676;52.630;4.896;2023-02-28T02:57:47;101202.72;;;4.21;83.68
46942;BME280;32676;52.630;4.896;2023-02-28T03:00:16;101176.72;;;4.12;83.53
46942;BME280;32676;52.630;4.896;2023-02-28T03:02:46;101174.09;;;4.11;83.69
46942;BME280;32676;52.630;4.896;2023-02-28T03:05:19;101176.72;;;4.12;83.80
46942;BME280;32676;52.630;4.896;2023-02-28T03:07:46;101175.84;;;4.12;83.97
46942;BME280;32676;52.630;4.896;2023-02-28T03:10:30;101174.09;;;4.11;83.99
46942;BME280;32676;52.630;4.896;2023-02-28T03:13:17;101176.69;;;4.11;83.97
46942;BME280;32676;52.630;4.896;2023-02-28T03:15:59;101181.91;;;4.12;83.95
46942;BME280;32676;52.630;4.896;2023-02-28T03:18:32;101187.97;;;4.16;84.06
46942;BME280;32676;52.630;4.896;2023-02-28T03:21:06;101195.78;;;4.14;84.09
46942;BME280;32676;52.630;4.896;2023-02-28T03:23:45;101201.84;;;4.18;84.21
46942;BME280;32676;52.630;4.896;2023-02-28T03:26:18;101200.13;;;4.18;84.33
46942;BME280;32676;52.630;4.896;2023-02-28T03:28:53;101209.66;;;4.19;84.16
46942;BME280;32676;52.630;4.896;2023-02-28T03:31:26;101217.47;;;4.21;84.00
46942;BME280;32676;52.630;4.896;2023-02-28T03:33:59;101215.72;;;4.21;84.35
46942;BME280;32676;52.630;4.896;2023-02-28T03:36:30;101233.06;;;4.24;84.22
46942;BME280;32676;52.630;4.896;2023-02-28T03:39:03;101227.88;;;4.22;84.05
46942;BME280;32676;52.630;4.896;2023-02-28T03:41:35;101211.38;;;4.17;84.48
46942;BME280;32676;52.630;4.896;2023-02-28T03:44:06;101217.44;;;4.19;84.20
46942;BME280;32676;52.630;4.896;2023-02-28T03:46:37;101203.59;;;4.17;83.92
46942;BME280;32676;52.630;4.896;2023-02-28T03:49:09;101200.13;;;4.15;84.05
46942;BME280;32676;52.630;4.896;2023-02-28T03:51:41;101193.16;;;4.13;84.20
46942;BME280;32676;52.630;4.896;2023-02-28T03:54:12;101181.91;;;4.12;84.32
46942;BME280;32676;52.630;4.896;2023-02-28T03:56:44;101194.06;;;4.13;84.55
46942;BME280;32676;52.630;4.896;2023-02-28T03:59:16;101209.63;;;4.16;84.42
46942;BME280;32676;52.630;4.896;2023-02-28T04:01:45;101218.31;;;4.15;84.34
46942;BME280;32676;52.630;4.896;2023-02-28T04:04:14;101227.00;;;4.20;84.55
46942;BME280;32676;52.630;4.896;2023-02-28T04:06:43;101227.00;;;4.17;84.80
46942;BME280;32676;52.630;4.896;2023-02-28T04:09:11;101239.13;;;4.25;84.71
46942;BME280;32676;52.630;4.896;2023-02-28T04:11:40;101239.13;;;4.25;84.65
46942;BME280;32676;52.630;4.896;2023-02-28T04:14:08;101235.66;;;4.22;84.65
46942;BME280;32676;52.630;4.896;2023-02-28T04:16:37;101225.25;;;4.19;84.92
46942;BME280;32676;52.630;4.896;2023-02-28T04:19:05;101221.78;;;4.17;84.88
46942;BME280;32676;52.630;4.896;2023-02-28T04:21:33;101223.53;;;4.18;85.21
46942;BME280;32676;52.630;4.896;2023-02-28T04:24:01;101224.41;;;4.20;85.21
46942;BME280;32676;52.630;4.896;2023-02-28T04:26:29;101246.06;;;4.22;85.47
46942;BME280;32676;52.630;4.896;2023-02-28T04:28:56;101246.94;;;4.25;85.32
46942;BME280;32676;52.630;4.896;2023-02-28T04:31:22;101261.66;;;4.26;85.38
46942;BME280;32676;52.630;4.896;2023-02-28T04:33:49;101259.97;;;4.28;85.51
46942;BME280;32676;52.630;4.896;2023-02-28T04:36:16;101263.41;;;4.28;85.60
46942;BME280;32676;52.630;4.896;2023-02-28T04:38:43;101266.00;;;4.27;85.70
46942;BME280;32676;52.630;4.896;2023-02-28T04:41:12;101271.22;;;4.30;85.68
46942;BME280;32676;52.630;4.896;2023-02-28T04:43:39;101289.41;;;4.33;85.86
46942;BME280;32676;52.630;4.896;2023-02-28T04:46:06;101296.38;;;4.34;86.01
46942;BME280;32676;52.630;4.896;2023-02-28T04:48:34;101298.97;;;4.35;86.13
46942;BME280;32676;52.630;4.896;2023-02-28T04:51:02;101303.31;;;4.35;86.14
46942;BME280;32676;52.630;4.896;2023-02-28T04:53:29;101305.91;;;4.36;86.15
46942;BME280;32676;52.630;4.896;2023-02-28T04:55:56;101303.31;;;4.35;86.32
46942;BME280;32676;52.630;4.896;2023-02-28T04:58:24;101303.31;;;4.35;86.58
46942;BME280;32676;52.630;4.896;2023-02-28T05:00:51;101318.91;;;4.38;86.35
46942;BME280;32676;52.630;4.896;2023-02-28T05:03:18;101314.59;;;4.38;86.63
46942;BME280;32676;52.630;4.896;2023-02-28T05:05:46;101325.88;;;4.39;86.24
46942;BME280;32676;52.630;4.896;2023-02-28T05:08:12;101322.41;;;4.37;86.63
46942;BME280;32676;52.630;4.896;2023-02-28T05:10:39;101322.41;;;4.37;86.79
46942;BME280;32676;52.630;4.896;2023-02-28T05:13:06;101346.66;;;4.42;86.64
46942;BME280;32676;52.630;4.896;2023-02-28T05:15:34;101333.66;;;4.42;86.72
46942;BME280;32676;52.630;4.896;2023-02-28T05:18:00;101324.13;;;4.35;86.81
46942;BME280;32676;52.630;4.896;2023-02-28T05:20:27;101318.91;;;4.32;86.92
46942;BME280;32676;52.630;4.896;2023-02-28T05:22:53;101327.59;;;4.40;86.97
46942;BME280;32676;52.630;4.896;2023-02-28T05:25:21;101319.78;;;4.34;86.95
46942;BME280;32676;52.630;4.896;2023-02-28T05:27:48;101305.91;;;4.32;87.11
46942;BME280;32676;52.630;4.896;2023-02-28T05:30:15;101306.75;;;4.31;87.13
46942;BME280;32676;52.630;4.896;2023-02-28T05:32:43;101306.75;;;4.31;87.09
46942;BME280;32676;52.630;4.896;2023-02-28T05:35:11;101306.75;;;4.31;87.20
46942;BME280;32676;52.630;4.896;2023-02-28T05:37:38;101319.78;;;4.34;87.18
46942;BME280;32676;52.630;4.896;2023-02-28T05:40:06;101304.16;;;4.32;87.37
46942;BME280;32676;52.630;4.896;2023-02-28T05:42:35;101306.75;;;4.31;87.23
46942;BME280;32676;52.630;4.896;2023-02-28T05:45:02;101315.44;;;4.33;87.35
46942;BME280;32676;52.630;4.896;2023-02-28T05:47:28;101322.41;;;4.37;87.32
46942;BME280;32676;52.630;4.896;2023-02-28T05:49:56;101334.53;;;4.38;87.38
46942;BME280;32676;52.630;4.896;2023-02-28T05:52:23;101327.59;;;4.37;87.58
46942;BME280;32676;52.630;4.896;2023-02-28T05:54:49;101343.19;;;4.40;87.58
46942;BME280;32676;52.630;4.896;2023-02-28T05:57:16;101342.34;;;4.41;87.45
46942;BME280;32676;52.630;4.896;2023-02-28T05:59:42;101345.78;;;4.40;87.56
46942;BME280;32676;52.630;4.896;2023-02-28T06:02:11;101350.16;;;4.41;87.47
46942;BME280;32676;52.630;4.896;2023-02-28T06:04:39;101351.00;;;4.40;87.29
46942;BME280;32676;52.630;4.896;2023-02-28T06:07:08;101319.78;;;4.32;87.30
46942;BME280;32676;52.630;4.896;2023-02-28T06:09:35;101311.97;;;4.31;87.14
46942;BME280;32676;52.630;4.896;2023-02-28T06:12:03;101298.97;;;4.28;86.83
46942;BME280;32676;52.630;4.896;2023-02-28T06:14:31;101272.06;;;4.19;86.79
46942;BME280;32676;52.630;4.896;2023-02-28T06:16:59;101263.41;;;4.17;86.30
46942;BME280;32676;52.630;4.896;2023-02-28T06:19:25;101249.53;;;4.15;86.18
46942;BME280;32676;52.630;4.896;2023-02-28T06:21:53;101237.41;;;4.11;86.07
46942;BME280;32676;52.630;4.896;2023-02-28T06:24:22;101221.78;;;4.08;86.04
46942;BME280;32676;52.630;4.896;2023-02-28T06:26:50;101201.84;;;4.02;85.99
46942;BME280;32676;52.630;4.896;2023-02-28T06:29:16;101192.31;;;4.03;85.88
46942;BME280;32676;52.630;4.896;2023-02-28T06:31:43;101194.03;;;4.01;85.97
46942;BME280;32676;52.630;4.896;2023-02-28T06:34:10;101185.38;;;3.99;86.03
46942;BME280;32676;52.630;4.896;2023-02-28T06:36:37;101159.38;;;3.93;86.14
46942;BME280;32676;52.630;4.896;2023-02-28T06:39:04;101165.44;;;3.93;86.04
46942;BME280;32676;52.630;4.896;2023-02-28T06:41:32;101136.81;;;3.85;86.26
46942;BME280;32676;52.630;4.896;2023-02-28T06:44:03;101145.53;;;3.88;85.93
46942;BME280;32676;52.630;4.896;2023-02-28T06:46:31;101148.13;;;3.88;86.26
46942;BME280;32676;52.630;4.896;2023-02-28T06:48:58;101143.78;;;3.87;86.06
46942;BME280;32676;52.630;4.896;2023-02-28T06:51:24;101143.78;;;3.87;85.89
46942;BME280;32676;52.630;4.896;2023-02-28T06:53:52;101147.25;;;3.89;85.69
46942;BME280;32676;52.630;4.896;2023-02-28T06:56:19;101136.81;;;3.85;85.75
46942;BME280;32676;52.630;4.896;2023-02-28T06:58:48;101146.38;;;3.88;85.59
46942;BME280;32676;52.630;4.896;2023-02-28T07:01:16;101168.91;;;3.92;85.58
46942;BME280;32676;52.630;4.896;2023-02-28T07:03:42;101175.84;;;3.95;85.35
46942;BME280;32676;52.630;4.896;2023-02-28T07:06:09;101197.50;;;4.00;85.34
46942;BME280;32676;52.630;4.896;2023-02-28T07:08:36;101229.59;;;4.07;85.24
46942;BME280;32676;52.630;4.896;2023-02-28T07:11:03;101249.50;;;4.09;85.25
46942;BME280;32676;52.630;4.896;2023-02-28T07:13:30;101259.09;;;4.15;85.19
46942;BME280;32676;52.630;4.896;2023-02-28T07:16:00;101251.25;;;4.07;84.88
46942;BME280;32676;52.630;4.896;2023-02-28T07:18:26;101270.34;;;4.15;84.76
46942;BME280;32676;52.630;4.896;2023-02-28T07:20:53;101223.50;;;4.03;84.39
46942;BME280;32676;52.630;4.896;2023-02-28T07:23:20;101213.97;;;3.97;84.41
46942;BME280;32676;52.630;4.896;2023-02-28T07:25:46;101194.03;;;3.98;84.26
46942;BME280;32676;52.630;4.896;2023-02-28T07:28:13;101177.56;;;3.93;84.33
46942;BME280;32676;52.630;4.896;2023-02-28T07:30:40;101164.59;;;3.90;84.29
46942;BME280;32676;52.630;4.896;2023-02-28T07:33:08;101140.31;;;3.84;84.23
46942;BME280;32676;52.630;4.896;2023-02-28T07:35:35;101137.72;;;3.83;84.17
46942;BME280;32676;52.630;4.896;2023-02-28T07:38:02;101128.19;;;3.80;84.13
46942;BME280;32676;52.630;4.896;2023-02-28T07:40:30;101127.31;;;3.80;84.02
46942;BME280;32676;52.630;4.896;2023-02-28T07:42:58;101109.13;;;3.72;83.95
46942;BME280;32676;52.630;4.896;2023-02-28T07:45:25;101105.66;;;3.73;83.89
46942;BME280;32676;52.630;4.896;2023-02-28T07:47:52;101098.72;;;3.69;83.81
46942;BME280;32676;52.630;4.896;2023-02-28T07:50:20;101058.88;;;3.58;83.80
46942;BME280;32676;52.630;4.896;2023-02-28T07:52:47;101064.09;;;3.64;83.63
46942;BME280;32676;52.630;4.896;2023-02-28T07:55:14;101039.81;;;3.53;83.53
46942;BME280;32676;52.630;4.896;2023-02-28T07:57:42;101039.81;;;3.56;83.48
46942;BME280;32676;52.630;4.896;2023-02-28T08:00:11;101006.06;;;3.48;83.61
46942;BME280;32676;52.630;4.896;2023-02-28T08:02:38;101019.03;;;3.50;83.35
46942;BME280;32676;52.630;4.896;2023-02-28T08:05:06;101024.25;;;3.50;83.61
46942;BME280;32676;52.630;4.896;2023-02-28T08:07:34;101022.50;;;3.52;83.42
46942;BME280;32676;52.630;4.896;2023-02-28T08:10:00;101034.63;;;3.53;83.31
46942;BME280;32676;52.630;4.896;2023-02-28T08:12:27;101034.63;;;3.56;83.33
46942;BME280;32676;52.630;4.896;2023-02-28T08:14:53;101046.75;;;3.57;83.23
46942;BME280;32676;52.630;4.896;2023-02-28T08:17:20;101038.97;;;3.54;82.93
46942;BME280;32676;52.630;4.896;2023-02-28T08:19:46;101021.66;;;3.50;82.88
46942;BME280;32676;52.630;4.896;2023-02-28T08:22:13;100996.53;;;3.42;82.86
46942;BME280;32676;52.630;4.896;2023-02-28T08:24:42;100983.53;;;3.39;82.54
46942;BME280;32676;52.630;4.896;2023-02-28T08:27:08;100964.50;;;3.36;82.48
46942;BME280;32676;52.630;4.896;2023-02-28T08:29:36;100929.88;;;3.28;82.36
46942;BME280;32676;52.630;4.896;2023-02-28T08:32:03;100892.66;;;3.18;82.23
46942;BME280;32676;52.630;4.896;2023-02-28T08:34:30;100863.25;;;3.10;82.05
46942;BME280;32676;52.630;4.896;2023-02-28T08:36:56;100833.81;;;3.00;82.21
46942;BME280;32676;52.630;4.896;2023-02-28T08:39:23;100852.88;;;3.06;82.07
46942;BME280;32676;52.630;4.896;2023-02-28T08:41:50;100842.47;;;3.03;82.44
46942;BME280;32676;52.630;4.896;2023-02-28T08:44:17;100839.03;;;3.01;82.50
46942;BME280;32676;52.630;4.896;2023-02-28T08:46:43;100865.84;;;3.10;82.40
46942;BME280;32676;52.630;4.896;2023-02-28T08:49:10;100868.44;;;3.10;82.66
46942;BME280;32676;52.630;4.896;2023-02-28T08:51:38;100892.69;;;3.15;82.50
46942;BME280;32676;52.630;4.896;2023-02-28T08:54:04;100891.78;;;3.16;82.74
46942;BME280;32676;52.630;4.896;2023-02-28T08:56:31;100882.28;;;3.15;82.78
46942;BME280;32676;52.630;4.896;2023-02-28T08:58:59;100909.09;;;3.20;82.68
46942;BME280;32676;52.630;4.896;2023-02-28T09:01:27;100921.22;;;3.22;82.61
46942;BME280;32676;52.630;4.896;2023-02-28T09:03:54;100937.69;;;3.26;82.60
46942;BME280;32676;52.630;4.896;2023-02-28T09:06:23;100957.56;;;3.32;82.58
46942;BME280;32676;52.630;4.896;2023-02-28T09:08:50;100969.69;;;3.34;82.46
46942;BME280;32676;52.630;4.896;2023-02-28T09:11:17;100972.28;;;3.36;82.45
46942;BME280;32676;52.630;4.896;2023-02-28T09:13:45;100977.47;;;3.34;82.42
46942;BME280;32676;52.630;4.896;2023-02-28T09:16:14;100999.97;;;3.41;82.50
46942;BME280;32676;52.630;4.896;2023-02-28T09:18:42;101020.78;;;3.44;82.40
46942;BME280;32676;52.630;4.896;2023-02-28T09:21:10;101025.97;;;3.48;82.15
46942;BME280;32676;52.630;4.896;2023-02-28T09:23:39;101047.63;;;3.51;82.21
46942;BME280;32676;52.630;4.896;2023-02-28T09:26:06;101051.09;;;3.52;81.92
46942;BME280;32676;52.630;4.896;2023-02-28T09:28:33;101065.81;;;3.56;81.85
46942;BME280;32676;52.630;4.896;2023-02-28T09:31:00;101092.66;;;3.62;81.84
46942;BME280;32676;52.630;4.896;2023-02-28T09:33:29;101101.31;;;3.64;81.89
46942;BME280;32676;52.630;4.896;2023-02-28T09:36:00;101109.13;;;3.66;81.99
46942;BME280;32676;52.630;4.896;2023-02-28T09:38:27;101123.00;;;3.71;81.65
46942;BME280;32676;52.630;4.896;2023-02-28T09:40:56;101156.78;;;3.79;81.86
46942;BME280;32676;52.630;4.896;2023-02-28T09:43:25;101198.38;;;3.88;81.72
46942;BME280;32676;52.630;4.896;2023-02-28T09:45:56;101223.50;;;3.94;81.86
46942;BME280;32676;52.630;4.896;2023-02-28T09:48:31;101253.00;;;4.00;81.72
46942;BME280;32676;52.630;4.896;2023-02-28T09:51:03;101303.28;;;4.13;81.73
46942;BME280;32676;52.630;4.896;2023-02-28T09:53:31;101339.72;;;4.22;81.54
46942;BME280;32676;52.630;4.896;2023-02-28T09:56:01;101362.25;;;4.27;81.19
46942;BME280;32676;52.630;4.896;2023-02-28T09:58:33;101391.78;;;4.35;81.43
46942;BME280;32676;52.630;4.896;2023-02-28T10:01:07;101404.78;;;4.38;81.11
46942;BME280;32676;52.630;4.896;2023-02-28T10:03:39;101425.59;;;4.41;81.16
46942;BME280;32676;52.630;4.896;2023-02-28T10:06:10;101454.25;;;4.49;80.94
46942;BME280;32676;52.630;4.896;2023-02-28T10:08:51;101493.31;;;4.58;81.00
46942;BME280;32676;52.630;4.896;2023-02-28T10:11:19;101535.00;;;4.69;80.69
46942;BME280;32676;52.630;4.896;2023-02-28T10:13:53;101546.28;;;4.71;80.57
46942;BME280;32676;52.630;4.896;2023-02-28T10:16:29;101568.00;;;4.77;80.07
46942;BME280;32676;52.630;4.896;2023-02-28T10:19:03;101590.56;;;4.81;79.71
46942;BME280;32676;52.630;4.896;2023-02-28T10:21:34;101610.56;;;4.84;79.46
46942;BME280;32676;52.630;4.896;2023-02-28T10:24:05;101641.84;;;4.93;79.11
46942;BME280;32676;52.630;4.896;2023-02-28T10:26:37;101666.19;;;4.98;78.83
46942;BME280;32676;52.630;4.896;2023-02-28T10:29:03;101678.34;;;5.03;78.62
46942;BME280;32676;52.630;4.896;2023-02-28T10:31:30;101721.78;;;5.13;78.51
46942;BME280;32676;52.630;4.896;2023-02-28T10:33:56;101769.63;;;5.24;78.80
46942;BME280;32676;52.630;4.896;2023-02-28T10:36:25;101815.69;;;5.34;78.61
46942;BME280;32676;52.630;4.896;2023-02-28T10:38:52;101864.44;;;5.48;78.68
46942;BME280;32676;52.630;4.896;2023-02-28T10:41:28;101917.50;;;5.59;78.42
46942;BME280;32676;52.630;4.896;2023-02-28T10:44:13;101951.47;;;5.70;78.10
46942;BME280;32676;52.630;4.896;2023-02-28T10:46:41;101977.56;;;5.74;77.14
46942;BME280;32676;52.630;4.896;2023-02-28T10:49:14;102021.13;;;5.85;76.25
46942;BME280;32676;52.630;4.896;2023-02-28T10:51:45;102085.59;;;6.01;75.58
46942;BME280;32676;52.630;4.896;2023-02-28T10:54:19;102126.53;;;6.08;74.90
46942;BME280;32676;52.630;4.896;2023-02-28T10:56:45;102140.47;;;6.12;74.21
46942;BME280;32676;52.630;4.896;2023-02-28T10:59:32;102110.00;;;6.06;72.93
46942;BME280;32676;52.630;4.896;2023-02-28T11:01:58;102123.94;;;6.08;72.20
46942;BME280;32676;52.630;4.896;2023-02-28T11:04:36;102143.09;;;6.13;71.75
46942;BME280;32676;52.630;4.896;2023-02-28T11:07:16;102145.72;;;6.13;71.32
46942;BME280;32676;52.630;4.896;2023-02-28T11:09:46;102141.38;;;6.15;70.54
46942;BME280;32676;52.630;4.896;2023-02-28T11:12:20;102181.44;;;6.21;69.83
46942;BME280;32676;52.630;4.896;2023-02-28T11:14:50;102171.84;;;6.21;69.49
46942;BME280;32676;52.630;4.896;2023-02-28T11:17:20;102188.38;;;6.22;69.35
46942;BME280;32676;52.630;4.896;2023-02-28T11:19:51;102176.22;;;6.21;69.41
46942;BME280;32676;52.630;4.896;2023-02-28T11:22:22;102199.72;;;6.25;69.79
46942;BME280;32676;52.630;4.896;2023-02-28T11:24:51;102201.50;;;6.26;69.99
46942;BME280;32676;52.630;4.896;2023-02-28T11:27:45;102217.19;;;6.29;70.13
46942;BME280;32676;52.630;4.896;2023-02-28T11:30:27;102229.38;;;6.33;70.20
46942;BME280;32676;52.630;4.896;2023-02-28T11:32:54;102216.28;;;6.29;70.66
46942;BME280;32676;52.630;4.896;2023-02-28T11:35:24;102200.63;;;6.26;70.66
46942;BME280;32676;52.630;4.896;2023-02-28T11:37:53;102197.09;;;6.24;70.52
46942;BME280;32676;52.630;4.896;2023-02-28T11:40:28;102208.44;;;6.27;70.64
46942;BME280;32676;52.630;4.896;2023-02-28T11:43:07;102225.00;;;6.31;70.59
46942;BME280;32676;52.630;4.896;2023-02-28T11:45:45;102224.13;;;6.30;70.65
46942;BME280;32676;52.630;4.896;2023-02-28T11:48:19;102213.66;;;6.26;69.89
46942;BME280;32676;52.630;4.896;2023-02-28T11:51:05;102211.06;;;6.26;68.41
46942;BME280;32676;52.630;4.896;2023-02-28T11:53:58;102219.78;;;6.31;67.43
46942;BME280;32676;52.630;4.896;2023-02-28T11:56:32;102241.56;;;6.31;67.42
46942;BME280;32676;52.630;4.896;2023-02-28T11:59:26;102254.66;;;6.39;67.03
46942;BME280;32676;52.630;4.896;2023-02-28T12:02:18;102277.31;;;6.43;66.69
46942;BME280;32676;52.630;4.896;2023-02-28T12:04:53;102252.03;;;6.36;65.98
46942;BME280;32676;52.630;4.896;2023-02-28T12:07:33;102279.09;;;6.44;65.51
46942;BME280;32676;52.630;4.896;2023-02-28T12:10:15;102333.16;;;6.58;65.44
46942;BME280;32676;52.630;4.896;2023-02-28T12:12:53;102331.38;;;6.57;64.33
46942;BME280;32676;52.630;4.896;2023-02-28T12:15:38;102348.84;;;6.61;63.67
46942;BME280;32676;52.630;4.896;2023-02-28T12:18:19;102350.59;;;6.62;63.35
46942;BME280;32676;52.630;4.896;2023-02-28T12:20:54;102360.19;;;6.63;62.94
46942;BME280;32676;52.630;4.896;2023-02-28T12:23:44;102334.88;;;6.56;62.22
46942;BME280;32676;52.630;4.896;2023-02-28T12:26:19;102349.72;;;6.61;61.47
46942;BME280;32676;52.630;4.896;2023-02-28T12:28:51;102405.56;;;6.76;61.69
46942;BME280;32676;52.630;4.896;2023-02-28T12:31:21;102441.34;;;6.81;61.68
46942;BME280;32676;52.630;4.896;2023-02-28T12:33:53;102463.19;;;6.88;61.40
46942;BME280;32676;52.630;4.896;2023-02-28T12:36:23;102434.34;;;6.80;60.59
46942;BME280;32676;52.630;4.896;2023-02-28T12:38:55;102442.19;;;6.82;59.88
46942;BME280;32676;52.630;4.896;2023-02-28T12:41:27;102409.03;;;6.75;59.44
46942;BME280;32676;52.630;4.896;2023-02-28T12:44:00;102382.84;;;6.67;58.58
46942;BME280;32676;52.630;4.896;2023-02-28T12:46:32;102359.31;;;6.61;58.16
46942;BME280;32676;52.630;4.896;2023-02-28T12:49:05;102356.72;;;6.62;57.42
46942;BME280;32676;52.630;4.896;2023-02-28T12:51:34;102342.75;;;6.59;56.92
46942;BME280;32676;52.630;4.896;2023-02-28T12:54:07;102344.47;;;6.60;56.77
46942;BME280;32676;52.630;4.896;2023-02-28T12:56:44;102354.09;;;6.61;56.34
46942;BME280;32676;52.630;4.896;2023-02-28T12:59:18;102348.84;;;6.61;55.66
46942;BME280;32676;52.630;4.896;2023-02-28T13:02:02;102347.09;;;6.60;55.32
46942;BME280;32676;52.630;4.896;2023-02-28T13:04:46;102354.03;;;6.58;55.08
46942;BME280;32676;52.630;4.896;2023-02-28T13:10:40;102392.47;;;6.71;54.75
46942;BME280;32676;52.630;4.896;2023-02-28T13:13:14;102393.34;;;6.71;54.42
46942;BME280;32676;52.630;4.896;2023-02-28T13:15:41;102419.53;;;6.78;54.47
46942;BME280;32676;52.630;4.896;2023-02-28T13:18:30;102430.88;;;6.81;54.42
46942;BME280;32676;52.630;4.896;2023-02-28T13:20:57;102436.97;;;6.79;53.72
46942;BME280;32676;52.630;4.896;2023-02-28T13:23:38;102465.78;;;6.86;52.87